sensor_id;sensor_type;location;lat;lon;timestamp;P1;durP1;ratioP1;P2;durP2;ratioP2
11453;SDS011;5783;55.174;61.310;2022-12-07T00:01:45;3.43;;;3.13;;
11453;SDS011;5783;55.174;61.310;2022-12-07T00:04:16;4.30;;;3.50;;
11453;SDS011;5783;55.174;61.310;2022-12-07T00:06:51;4.40;;;3.70;;
11453;SDS011;5783;55.174;61.310;2022-12-07T00:09:18;5.50;;;3.53;;
11453;SDS011;5783;55.174;61.310;2022-12-07T00:11:48;4.53;;;3.70;;
11453;SDS011;5783;55.174;61.310;2022-12-07T00:14:19;4.97;;;3.83;;
11453;SDS011;5783;55.174;61.310;2022-12-07T00:16:49;4.00;;;3.50;;
11453;SDS011;5783;55.174;61.310;2022-12-07T00:21:51;4.00;;;3.60;;
11453;SDS011;5783;55.174;61.310;2022-12-07T00:24:20;3.83;;;3.33;;
11453;SDS011;5783;55.174;61.310;2022-12-07T00:26:49;4.40;;;3.40;;
11453;SDS011;5783;55.174;61.310;2022-12-07T00:29:19;7.03;;;3.93;;
11453;SDS011;5783;55.174;61.310;2022-12-07T00:31:49;4.83;;;3.87;;
11453;SDS011;5783;55.174;61.310;2022-12-07T00:34:19;4.63;;;3.60;;
11453;SDS011;5783;55.174;61.310;2022-12-07T00:36:49;4.47;;;3.90;;
11453;SDS011;5783;55.174;61.310;2022-12-07T00:39:18;4.10;;;3.70;;
11453;SDS011;5783;55.174;61.310;2022-12-07T00:41:47;5.07;;;3.90;;
11453;SDS011;5783;55.174;61.310;2022-12-07T00:44:17;5.37;;;3.77;;
11453;SDS011;5783;55.174;61.310;2022-12-07T00:46:46;5.07;;;4.00;;
11453;SDS011;5783;55.174;61.310;2022-12-07T00:49:15;4.67;;;4.07;;
11453;SDS011;5783;55.174;61.310;2022-12-07T00:51:44;4.00;;;3.60;;
11453;SDS011;5783;55.174;61.310;2022-12-07T00:54:15;6.20;;;4.07;;
11453;SDS011;5783;55.174;61.310;2022-12-07T00:56:44;5.13;;;4.20;;
11453;SDS011;5783;55.174;61.310;2022-12-07T00:59:13;4.50;;;3.67;;
11453;SDS011;5783;55.174;61.310;2022-12-07T01:01:42;5.00;;;3.93;;
11453;SDS011;5783;55.174;61.310;2022-12-07T01:04:11;4.97;;;3.90;;
11453;SDS011;5783;55.174;61.310;2022-12-07T01:06:40;4.53;;;3.70;;
11453;SDS011;5783;55.174;61.310;2022-12-07T01:09:09;4.53;;;4.03;;
11453;SDS011;5783;55.174;61.310;2022-12-07T01:11:39;4.40;;;3.90;;
11453;SDS011;5783;55.174;61.310;2022-12-07T01:14:08;4.30;;;3.80;;
11453;SDS011;5783;55.174;61.310;2022-12-07T01:16:38;5.27;;;3.80;;
11453;SDS011;5783;55.174;61.310;2022-12-07T01:19:07;5.17;;;4.10;;
11453;SDS011;5783;55.174;61.310;2022-12-07T01:21:36;5.00;;;3.80;;
11453;SDS011;5783;55.174;61.310;2022-12-07T01:24:09;4.80;;;4.00;;
11453;SDS011;5783;55.174;61.310;2022-12-07T01:26:38;5.57;;;4.20;;
11453;SDS011;5783;55.174;61.310;2022-12-07T01:29:08;5.10;;;3.87;;
11453;SDS011;5783;55.174;61.310;2022-12-07T01:31:37;5.43;;;4.07;;
11453;SDS011;5783;55.174;61.310;2022-12-07T01:34:06;4.87;;;4.30;;
11453;SDS011;5783;55.174;61.310;2022-12-07T01:36:36;5.50;;;4.27;;
11453;SDS011;5783;55.174;61.310;2022-12-07T01:39:06;5.63;;;4.30;;
11453;SDS011;5783;55.174;61.310;2022-12-07T01:41:38;5.63;;;4.23;;
11453;SDS011;5783;55.174;61.310;2022-12-07T01:47:00;5.67;;;4.47;;
11453;SDS011;5783;55.174;61.310;2022-12-07T01:49:33;5.60;;;4.30;;
11453;SDS011;5783;55.174;61.310;2022-12-07T01:54:55;4.63;;;3.90;;
11453;SDS011;5783;55.174;61.310;2022-12-07T02:00:34;5.57;;;4.50;;
11453;SDS011;5783;55.174;61.310;2022-12-07T02:03:04;4.50;;;3.83;;
11453;SDS011;5783;55.174;61.310;2022-12-07T02:05:35;4.43;;;3.93;;
11453;SDS011;5783;55.174;61.310;2022-12-07T02:08:06;4.90;;;4.10;;
11453;SDS011;5783;55.174;61.310;2022-12-07T02:10:36;5.70;;;4.17;;
11453;SDS011;5783;55.174;61.310;2022-12-07T02:41:48;4.80;;;4.10;;
11453;SDS011;5783;55.174;61.310;2022-12-07T02:47:09;5.00;;;4.10;;
11453;SDS011;5783;55.174;61.310;2022-12-07T02:49:41;6.07;;;4.30;;
11453;SDS011;5783;55.174;61.310;2022-12-07T02:52:11;4.97;;;4.27;;
11453;SDS011;5783;55.174;61.310;2022-12-07T02:54:40;5.20;;;4.03;;
11453;SDS011;5783;55.174;61.310;2022-12-07T02:57:14;4.87;;;4.30;;
11453;SDS011;5783;55.174;61.310;2022-12-07T03:05:44;5.90;;;4.37;;
11453;SDS011;5783;55.174;61.310;2022-12-07T03:08:35;4.83;;;4.33;;
11453;SDS011;5783;55.174;61.310;2022-12-07T03:19:52;4.97;;;4.30;;
11453;SDS011;5783;55.174;61.310;2022-12-07T03:22:25;4.63;;;4.03;;
11453;SDS011;5783;55.174;61.310;2022-12-07T03:24:57;5.77;;;4.33;;
11453;SDS011;5783;55.174;61.310;2022-12-07T03:33:13;5.63;;;4.50;;
11453;SDS011;5783;55.174;61.310;2022-12-07T03:42:02;5.57;;;4.43;;
11453;SDS011;5783;55.174;61.310;2022-12-07T03:44:34;5.87;;;4.60;;
11453;SDS011;5783;55.174;61.310;2022-12-07T03:56:29;5.63;;;4.57;;
11453;SDS011;5783;55.174;61.310;2022-12-07T03:58:59;5.13;;;4.60;;
11453;SDS011;5783;55.174;61.310;2022-12-07T04:01:28;5.80;;;4.37;;
11453;SDS011;5783;55.174;61.310;2022-12-07T04:03:57;6.03;;;4.43;;
11453;SDS011;5783;55.174;61.310;2022-12-07T04:06:27;5.73;;;4.50;;
11453;SDS011;5783;55.174;61.310;2022-12-07T04:08:56;6.03;;;4.63;;
11453;SDS011;5783;55.174;61.310;2022-12-07T04:11:25;5.27;;;4.40;;
11453;SDS011;5783;55.174;61.310;2022-12-07T04:13:54;5.10;;;4.33;;
11453;SDS011;5783;55.174;61.310;2022-12-07T04:16:43;5.07;;;4.37;;
11453;SDS011;5783;55.174;61.310;2022-12-07T04:19:32;6.13;;;4.70;;
11453;SDS011;5783;55.174;61.310;2022-12-07T04:22:03;5.53;;;4.20;;
11453;SDS011;5783;55.174;61.310;2022-12-07T04:24:33;5.73;;;4.50;;
11453;SDS011;5783;55.174;61.310;2022-12-07T04:27:02;7.30;;;4.70;;
11453;SDS011;5783;55.174;61.310;2022-12-07T04:29:31;5.50;;;4.70;;
11453;SDS011;5783;55.174;61.310;2022-12-07T04:32:21;5.40;;;4.37;;
11453;SDS011;5783;55.174;61.310;2022-12-07T04:34:51;5.57;;;4.50;;
11453;SDS011;5783;55.174;61.310;2022-12-07T04:37:20;6.43;;;5.27;;
11453;SDS011;5783;55.174;61.310;2022-12-07T04:39:50;6.70;;;5.53;;
11453;SDS011;5783;55.174;61.310;2022-12-07T04:42:19;6.47;;;5.20;;
11453;SDS011;5783;55.174;61.310;2022-12-07T04:44:48;7.73;;;6.00;;
11453;SDS011;5783;55.174;61.310;2022-12-07T04:47:17;7.90;;;6.13;;
11453;SDS011;5783;55.174;61.310;2022-12-07T04:49:46;8.07;;;5.60;;
11453;SDS011;5783;55.174;61.310;2022-12-07T04:52:15;7.07;;;5.70;;
11453;SDS011;5783;55.174;61.310;2022-12-07T04:54:44;8.50;;;6.00;;
11453;SDS011;5783;55.174;61.310;2022-12-07T04:57:14;7.50;;;6.07;;
11453;SDS011;5783;55.174;61.310;2022-12-07T04:59:43;8.03;;;6.20;;
11453;SDS011;5783;55.174;61.310;2022-12-07T05:02:12;7.90;;;6.00;;
11453;SDS011;5783;55.174;61.310;2022-12-07T05:04:41;9.60;;;6.50;;
11453;SDS011;5783;55.174;61.310;2022-12-07T05:07:10;7.73;;;6.27;;
11453;SDS011;5783;55.174;61.310;2022-12-07T05:09:39;9.50;;;6.90;;
11453;SDS011;5783;55.174;61.310;2022-12-07T05:12:08;9.53;;;7.00;;
11453;SDS011;5783;55.174;61.310;2022-12-07T05:14:37;8.03;;;6.70;;
11453;SDS011;5783;55.174;61.310;2022-12-07T05:17:06;8.23;;;6.20;;
11453;SDS011;5783;55.174;61.310;2022-12-07T05:19:37;7.50;;;6.03;;
11453;SDS011;5783;55.174;61.310;2022-12-07T05:24:37;9.63;;;6.03;;
11453;SDS011;5783;55.174;61.310;2022-12-07T05:27:06;7.00;;;6.13;;
11453;SDS011;5783;55.174;61.310;2022-12-07T05:29:35;8.47;;;5.87;;
11453;SDS011;5783;55.174;61.310;2022-12-07T05:32:04;7.77;;;5.93;;
11453;SDS011;5783;55.174;61.310;2022-12-07T05:34:33;7.73;;;6.07;;
11453;SDS011;5783;55.174;61.310;2022-12-07T05:37:02;6.27;;;5.50;;
11453;SDS011;5783;55.174;61.310;2022-12-07T05:39:32;7.27;;;5.70;;
11453;SDS011;5783;55.174;61.310;2022-12-07T05:42:01;6.87;;;5.70;;
11453;SDS011;5783;55.174;61.310;2022-12-07T05:44:49;8.53;;;5.70;;
11453;SDS011;5783;55.174;61.310;2022-12-07T05:47:18;5.97;;;5.37;;
11453;SDS011;5783;55.174;61.310;2022-12-07T05:49:48;7.90;;;5.43;;
11453;SDS011;5783;55.174;61.310;2022-12-07T05:52:43;8.03;;;5.33;;
11453;SDS011;5783;55.174;61.310;2022-12-07T05:55:12;6.20;;;5.37;;
11453;SDS011;5783;55.174;61.310;2022-12-07T05:57:41;7.33;;;5.60;;
11453;SDS011;5783;55.174;61.310;2022-12-07T06:00:12;7.27;;;5.93;;
11453;SDS011;5783;55.174;61.310;2022-12-07T06:02:42;7.20;;;5.67;;
11453;SDS011;5783;55.174;61.310;2022-12-07T06:05:13;8.97;;;6.17;;
11453;SDS011;5783;55.174;61.310;2022-12-07T06:07:42;7.70;;;6.57;;
11453;SDS011;5783;55.174;61.310;2022-12-07T06:10:11;8.13;;;6.80;;
11453;SDS011;5783;55.174;61.310;2022-12-07T06:12:40;8.53;;;6.90;;
11453;SDS011;5783;55.174;61.310;2022-12-07T06:15:11;8.67;;;7.53;;
11453;SDS011;5783;55.174;61.310;2022-12-07T06:17:40;9.67;;;7.90;;
11453;SDS011;5783;55.174;61.310;2022-12-07T06:20:11;10.60;;;7.80;;
11453;SDS011;5783;55.174;61.310;2022-12-07T06:22:40;9.30;;;6.80;;
11453;SDS011;5783;55.174;61.310;2022-12-07T06:25:09;7.97;;;7.07;;
11453;SDS011;5783;55.174;61.310;2022-12-07T06:27:38;9.20;;;6.93;;
11453;SDS011;5783;55.174;61.310;2022-12-07T06:30:07;7.67;;;6.47;;
11453;SDS011;5783;55.174;61.310;2022-12-07T06:32:37;7.43;;;6.17;;
11453;SDS011;5783;55.174;61.310;2022-12-07T06:35:06;8.00;;;6.50;;
11453;SDS011;5783;55.174;61.310;2022-12-07T06:37:35;8.57;;;6.60;;
11453;SDS011;5783;55.174;61.310;2022-12-07T06:40:05;8.13;;;6.10;;
11453;SDS011;5783;55.174;61.310;2022-12-07T06:42:35;8.77;;;6.33;;
11453;SDS011;5783;55.174;61.310;2022-12-07T06:45:04;8.27;;;6.00;;
11453;SDS011;5783;55.174;61.310;2022-12-07T06:47:34;7.60;;;6.10;;
11453;SDS011;5783;55.174;61.310;2022-12-07T06:50:03;7.10;;;5.80;;
11453;SDS011;5783;55.174;61.310;2022-12-07T06:52:33;6.57;;;5.70;;
11453;SDS011;5783;55.174;61.310;2022-12-07T06:55:02;7.53;;;5.83;;
11453;SDS011;5783;55.174;61.310;2022-12-07T06:57:32;6.47;;;5.33;;
11453;SDS011;5783;55.174;61.310;2022-12-07T07:00:01;5.83;;;4.93;;
11453;SDS011;5783;55.174;61.310;2022-12-07T07:02:32;5.63;;;4.60;;
11453;SDS011;5783;55.174;61.310;2022-12-07T07:05:01;6.53;;;4.77;;
11453;SDS011;5783;55.174;61.310;2022-12-07T07:07:30;6.93;;;4.80;;
11453;SDS011;5783;55.174;61.310;2022-12-07T07:09:59;5.67;;;4.43;;
11453;SDS011;5783;55.174;61.310;2022-12-07T07:12:30;5.83;;;4.53;;
11453;SDS011;5783;55.174;61.310;2022-12-07T07:14:59;5.97;;;4.60;;
11453;SDS011;5783;55.174;61.310;2022-12-07T07:17:30;6.70;;;4.83;;
11453;SDS011;5783;55.174;61.310;2022-12-07T07:19:59;8.13;;;4.87;;
11453;SDS011;5783;55.174;61.310;2022-12-07T07:22:30;5.60;;;4.23;;
11453;SDS011;5783;55.174;61.310;2022-12-07T07:24:59;5.93;;;4.53;;
11453;SDS011;5783;55.174;61.310;2022-12-07T07:27:28;5.40;;;4.30;;
11453;SDS011;5783;55.174;61.310;2022-12-07T07:29:58;5.67;;;4.43;;
11453;SDS011;5783;55.174;61.310;2022-12-07T07:32:27;6.07;;;4.20;;
11453;SDS011;5783;55.174;61.310;2022-12-07T07:34:56;6.07;;;4.63;;
11453;SDS011;5783;55.174;61.310;2022-12-07T07:37:25;5.80;;;4.17;;
11453;SDS011;5783;55.174;61.310;2022-12-07T07:39:55;5.20;;;4.30;;
11453;SDS011;5783;55.174;61.310;2022-12-07T07:42:24;6.43;;;4.40;;
11453;SDS011;5783;55.174;61.310;2022-12-07T07:44:54;6.30;;;4.63;;
11453;SDS011;5783;55.174;61.310;2022-12-07T07:47:23;5.20;;;4.47;;
11453;SDS011;5783;55.174;61.310;2022-12-07T07:49:52;6.27;;;4.90;;
11453;SDS011;5783;55.174;61.310;2022-12-07T07:52:21;5.80;;;5.17;;
11453;SDS011;5783;55.174;61.310;2022-12-07T07:54:50;6.67;;;4.90;;
11453;SDS011;5783;55.174;61.310;2022-12-07T07:57:19;6.80;;;5.27;;
11453;SDS011;5783;55.174;61.310;2022-12-07T07:59:48;6.57;;;5.40;;
11453;SDS011;5783;55.174;61.310;2022-12-07T08:02:18;6.60;;;5.30;;
11453;SDS011;5783;55.174;61.310;2022-12-07T08:04:48;6.90;;;5.27;;
11453;SDS011;5783;55.174;61.310;2022-12-07T08:07:17;7.90;;;5.40;;
11453;SDS011;5783;55.174;61.310;2022-12-07T08:09:46;6.83;;;4.97;;
11453;SDS011;5783;55.174;61.310;2022-12-07T08:12:15;6.50;;;5.20;;
11453;SDS011;5783;55.174;61.310;2022-12-07T08:14:44;6.43;;;5.17;;
11453;SDS011;5783;55.174;61.310;2022-12-07T08:17:13;6.83;;;5.20;;
11453;SDS011;5783;55.174;61.310;2022-12-07T08:19:43;5.40;;;4.77;;
11453;SDS011;5783;55.174;61.310;2022-12-07T08:22:12;8.03;;;5.17;;
11453;SDS011;5783;55.174;61.310;2022-12-07T08:24:41;7.20;;;5.07;;
11453;SDS011;5783;55.174;61.310;2022-12-07T08:27:10;7.23;;;5.30;;
11453;SDS011;5783;55.174;61.310;2022-12-07T08:29:40;6.83;;;5.10;;
11453;SDS011;5783;55.174;61.310;2022-12-07T08:32:09;5.63;;;4.63;;
11453;SDS011;5783;55.174;61.310;2022-12-07T08:34:38;6.80;;;5.03;;
11453;SDS011;5783;55.174;61.310;2022-12-07T08:37:07;7.00;;;5.80;;
11453;SDS011;5783;55.174;61.310;2022-12-07T08:39:36;6.57;;;5.20;;
11453;SDS011;5783;55.174;61.310;2022-12-07T08:42:06;7.83;;;5.20;;
11453;SDS011;5783;55.174;61.310;2022-12-07T08:44:35;7.63;;;5.23;;
11453;SDS011;5783;55.174;61.310;2022-12-07T08:47:06;7.90;;;5.73;;
11453;SDS011;5783;55.174;61.310;2022-12-07T08:52:10;6.60;;;5.17;;
11453;SDS011;5783;55.174;61.310;2022-12-07T08:54:40;6.57;;;5.10;;
11453;SDS011;5783;55.174;61.310;2022-12-07T08:57:10;7.97;;;5.93;;
11453;SDS011;5783;55.174;61.310;2022-12-07T08:59:39;7.43;;;5.47;;
11453;SDS011;5783;55.174;61.310;2022-12-07T09:02:08;8.00;;;5.53;;
11453;SDS011;5783;55.174;61.310;2022-12-07T09:04:37;7.33;;;5.70;;
11453;SDS011;5783;55.174;61.310;2022-12-07T09:07:06;9.97;;;5.90;;
11453;SDS011;5783;55.174;61.310;2022-12-07T09:09:35;7.37;;;5.97;;
11453;SDS011;5783;55.174;61.310;2022-12-07T09:12:05;6.83;;;5.80;;
11453;SDS011;5783;55.174;61.310;2022-12-07T09:14:34;7.77;;;5.97;;
11453;SDS011;5783;55.174;61.310;2022-12-07T09:19:52;7.10;;;5.73;;
11453;SDS011;5783;55.174;61.310;2022-12-07T09:22:21;7.00;;;5.60;;
11453;SDS011;5783;55.174;61.310;2022-12-07T09:24:50;9.00;;;6.73;;
11453;SDS011;5783;55.174;61.310;2022-12-07T09:27:19;8.33;;;6.40;;
11453;SDS011;5783;55.174;61.310;2022-12-07T09:29:49;9.73;;;6.60;;
11453;SDS011;5783;55.174;61.310;2022-12-07T09:32:18;8.90;;;6.90;;
11453;SDS011;5783;55.174;61.310;2022-12-07T09:34:47;11.53;;;7.80;;
11453;SDS011;5783;55.174;61.310;2022-12-07T09:37:16;10.57;;;7.53;;
11453;SDS011;5783;55.174;61.310;2022-12-07T09:39:45;10.13;;;7.83;;
11453;SDS011;5783;55.174;61.310;2022-12-07T09:45:23;10.90;;;7.77;;
11453;SDS011;5783;55.174;61.310;2022-12-07T09:51:31;10.57;;;7.87;;
11453;SDS011;5783;55.174;61.310;2022-12-07T09:54:00;11.17;;;8.03;;
11453;SDS011;5783;55.174;61.310;2022-12-07T09:56:30;9.97;;;7.90;;
11453;SDS011;5783;55.174;61.310;2022-12-07T09:59:00;11.50;;;8.30;;
11453;SDS011;5783;55.174;61.310;2022-12-07T10:01:31;10.93;;;8.40;;
11453;SDS011;5783;55.174;61.310;2022-12-07T10:04:35;10.17;;;7.87;;
11453;SDS011;5783;55.174;61.310;2022-12-07T10:06:52;10.50;;;7.90;;
11453;SDS011;5783;55.174;61.310;2022-12-07T10:09:21;11.87;;;8.60;;
11453;SDS011;5783;55.174;61.310;2022-12-07T10:14:52;10.17;;;7.40;;
11453;SDS011;5783;55.174;61.310;2022-12-07T10:37:59;10.17;;;7.83;;
11453;SDS011;5783;55.174;61.310;2022-12-07T10:43:18;13.83;;;8.13;;
11453;SDS011;5783;55.174;61.310;2022-12-07T10:58:06;11.17;;;7.83;;
11453;SDS011;5783;55.174;61.310;2022-12-07T11:18:32;11.27;;;8.00;;
11453;SDS011;5783;55.174;61.310;2022-12-07T11:38:41;10.57;;;8.00;;
11453;SDS011;5783;55.174;61.310;2022-12-07T12:07:02;13.37;;;9.20;;
11453;SDS011;5783;55.174;61.310;2022-12-07T12:09:34;12.83;;;9.80;;
11453;SDS011;5783;55.174;61.310;2022-12-07T12:18:41;11.90;;;9.77;;
11453;SDS011;5783;55.174;61.310;2022-12-07T12:21:29;12.53;;;10.07;;
11453;SDS011;5783;55.174;61.310;2022-12-07T12:24:00;13.03;;;9.87;;
11453;SDS011;5783;55.174;61.310;2022-12-07T12:29:39;10.93;;;9.07;;
11453;SDS011;5783;55.174;61.310;2022-12-07T12:58:49;9.50;;;7.00;;
11453;SDS011;5783;55.174;61.310;2022-12-07T13:07:02;9.53;;;6.70;;
11453;SDS011;5783;55.174;61.310;2022-12-07T13:09:33;8.80;;;6.87;;
11453;SDS011;5783;55.174;61.310;2022-12-07T13:14:52;8.10;;;6.20;;
11453;SDS011;5783;55.174;61.310;2022-12-07T13:29:20;8.07;;;6.30;;
11453;SDS011;5783;55.174;61.310;2022-12-07T13:34:40;6.97;;;5.63;;
11453;SDS011;5783;55.174;61.310;2022-12-07T13:37:10;8.90;;;6.17;;
11453;SDS011;5783;55.174;61.310;2022-12-07T13:40:01;7.07;;;5.50;;
11453;SDS011;5783;55.174;61.310;2022-12-07T13:42:33;6.80;;;5.60;;
11453;SDS011;5783;55.174;61.310;2022-12-07T13:51:03;8.03;;;5.40;;
11453;SDS011;5783;55.174;61.310;2022-12-07T13:53:32;6.40;;;5.53;;
11453;SDS011;5783;55.174;61.310;2022-12-07T13:56:01;6.43;;;5.43;;
11453;SDS011;5783;55.174;61.310;2022-12-07T13:58:31;6.00;;;5.27;;
11453;SDS011;5783;55.174;61.310;2022-12-07T14:01:01;6.37;;;5.43;;
11453;SDS011;5783;55.174;61.310;2022-12-07T14:03:32;8.60;;;5.80;;
11453;SDS011;5783;55.174;61.310;2022-12-07T14:12:00;7.40;;;5.30;;
11453;SDS011;5783;55.174;61.310;2022-12-07T14:14:32;6.47;;;5.50;;
11453;SDS011;5783;55.174;61.310;2022-12-07T14:22:59;7.90;;;5.63;;
11453;SDS011;5783;55.174;61.310;2022-12-07T14:25:32;7.57;;;5.70;;
11453;SDS011;5783;55.174;61.310;2022-12-07T14:28:01;6.87;;;5.33;;
11453;SDS011;5783;55.174;61.310;2022-12-07T14:30:31;8.03;;;5.57;;
11453;SDS011;5783;55.174;61.310;2022-12-07T14:33:02;7.17;;;5.50;;
11453;SDS011;5783;55.174;61.310;2022-12-07T14:35:35;6.70;;;5.43;;
11453;SDS011;5783;55.174;61.310;2022-12-07T14:38:07;7.13;;;5.23;;
11453;SDS011;5783;55.174;61.310;2022-12-07T14:40:36;7.93;;;5.43;;
11453;SDS011;5783;55.174;61.310;2022-12-07T14:45:55;5.87;;;4.93;;
11453;SDS011;5783;55.174;61.310;2022-12-07T14:48:24;7.97;;;5.27;;
11453;SDS011;5783;55.174;61.310;2022-12-07T14:50:53;8.73;;;6.80;;
11453;SDS011;5783;55.174;61.310;2022-12-07T14:53:24;8.00;;;6.63;;
11453;SDS011;5783;55.174;61.310;2022-12-07T14:55:55;8.27;;;6.17;;
11453;SDS011;5783;55.174;61.310;2022-12-07T14:58:24;7.87;;;5.50;;
11453;SDS011;5783;55.174;61.310;2022-12-07T15:00:53;7.50;;;5.20;;
11453;SDS011;5783;55.174;61.310;2022-12-07T15:03:22;8.60;;;6.20;;
11453;SDS011;5783;55.174;61.310;2022-12-07T15:05:51;6.93;;;5.40;;
11453;SDS011;5783;55.174;61.310;2022-12-07T15:08:20;7.17;;;5.90;;
11453;SDS011;5783;55.174;61.310;2022-12-07T15:10:49;7.53;;;5.40;;
11453;SDS011;5783;55.174;61.310;2022-12-07T15:13:19;7.53;;;4.80;;
11453;SDS011;5783;55.174;61.310;2022-12-07T15:16:09;6.43;;;4.53;;
11453;SDS011;5783;55.174;61.310;2022-12-07T15:18:57;5.87;;;4.37;;
11453;SDS011;5783;55.174;61.310;2022-12-07T15:21:26;5.70;;;4.67;;
11453;SDS011;5783;55.174;61.310;2022-12-07T15:23:55;5.67;;;4.47;;
11453;SDS011;5783;55.174;61.310;2022-12-07T15:26:24;5.23;;;4.57;;
11453;SDS011;5783;55.174;61.310;2022-12-07T15:28:53;5.47;;;4.50;;
11453;SDS011;5783;55.174;61.310;2022-12-07T15:31:22;4.93;;;4.27;;
11453;SDS011;5783;55.174;61.310;2022-12-07T15:33:52;5.13;;;4.20;;
11453;SDS011;5783;55.174;61.310;2022-12-07T15:36:22;7.00;;;4.93;;
11453;SDS011;5783;55.174;61.310;2022-12-07T15:38:52;6.77;;;4.90;;
11453;SDS011;5783;55.174;61.310;2022-12-07T15:41:22;4.90;;;4.13;;
11453;SDS011;5783;55.174;61.310;2022-12-07T15:43:53;6.10;;;4.47;;
11453;SDS011;5783;55.174;61.310;2022-12-07T15:46:41;5.57;;;4.60;;
11453;SDS011;5783;55.174;61.310;2022-12-07T15:51:43;5.87;;;4.80;;
11453;SDS011;5783;55.174;61.310;2022-12-07T15:54:15;6.13;;;4.70;;
11453;SDS011;5783;55.174;61.310;2022-12-07T15:57:03;5.30;;;4.60;;
11453;SDS011;5783;55.174;61.310;2022-12-07T15:59:32;4.90;;;4.37;;
11453;SDS011;5783;55.174;61.310;2022-12-07T16:02:01;5.20;;;4.47;;
11453;SDS011;5783;55.174;61.310;2022-12-07T16:04:30;5.60;;;4.60;;
11453;SDS011;5783;55.174;61.310;2022-12-07T16:06:59;6.20;;;4.40;;
11453;SDS011;5783;55.174;61.310;2022-12-07T16:09:28;5.67;;;4.63;;
11453;SDS011;5783;55.174;61.310;2022-12-07T16:11:58;6.47;;;5.13;;
11453;SDS011;5783;55.174;61.310;2022-12-07T16:14:27;5.43;;;4.80;;
11453;SDS011;5783;55.174;61.310;2022-12-07T16:16:58;6.30;;;4.60;;
11453;SDS011;5783;55.174;61.310;2022-12-07T16:19:27;6.00;;;4.50;;
11453;SDS011;5783;55.174;61.310;2022-12-07T16:21:56;6.43;;;4.87;;
11453;SDS011;5783;55.174;61.310;2022-12-07T16:24:26;6.37;;;5.10;;
11453;SDS011;5783;55.174;61.310;2022-12-07T16:26:55;5.43;;;4.47;;
11453;SDS011;5783;55.174;61.310;2022-12-07T16:29:24;6.17;;;4.60;;
11453;SDS011;5783;55.174;61.310;2022-12-07T16:31:53;7.63;;;5.37;;
11453;SDS011;5783;55.174;61.310;2022-12-07T16:34:23;5.87;;;4.97;;
11453;SDS011;5783;55.174;61.310;2022-12-07T16:36:52;6.03;;;5.07;;
11453;SDS011;5783;55.174;61.310;2022-12-07T16:39:21;5.10;;;4.60;;
11453;SDS011;5783;55.174;61.310;2022-12-07T16:41:50;7.10;;;5.27;;
11453;SDS011;5783;55.174;61.310;2022-12-07T16:44:19;7.93;;;5.23;;
11453;SDS011;5783;55.174;61.310;2022-12-07T16:46:48;6.67;;;4.83;;
11453;SDS011;5783;55.174;61.310;2022-12-07T16:49:17;8.53;;;5.60;;
11453;SDS011;5783;55.174;61.310;2022-12-07T16:51:49;9.57;;;6.87;;
11453;SDS011;5783;55.174;61.310;2022-12-07T16:54:36;7.23;;;5.70;;
11453;SDS011;5783;55.174;61.310;2022-12-07T16:57:05;6.37;;;5.10;;
11453;SDS011;5783;55.174;61.310;2022-12-07T16:59:34;8.80;;;6.13;;
11453;SDS011;5783;55.174;61.310;2022-12-07T17:02:04;5.97;;;4.80;;
11453;SDS011;5783;55.174;61.310;2022-12-07T17:04:34;6.23;;;4.67;;
11453;SDS011;5783;55.174;61.310;2022-12-07T17:07:05;7.33;;;5.00;;
11453;SDS011;5783;55.174;61.310;2022-12-07T17:09:34;5.53;;;4.47;;
11453;SDS011;5783;55.174;61.310;2022-12-07T17:12:04;4.67;;;4.10;;
11453;SDS011;5783;55.174;61.310;2022-12-07T17:14:33;5.30;;;4.27;;
11453;SDS011;5783;55.174;61.310;2022-12-07T17:17:22;5.77;;;4.30;;
11453;SDS011;5783;55.174;61.310;2022-12-07T17:19:51;5.07;;;4.50;;
11453;SDS011;5783;55.174;61.310;2022-12-07T17:22:20;4.90;;;4.10;;
11453;SDS011;5783;55.174;61.310;2022-12-07T17:24:49;4.83;;;4.30;;
11453;SDS011;5783;55.174;61.310;2022-12-07T17:27:19;6.80;;;4.70;;
11453;SDS011;5783;55.174;61.310;2022-12-07T17:29:48;5.27;;;4.40;;
11453;SDS011;5783;55.174;61.310;2022-12-07T17:32:17;6.20;;;4.73;;
11453;SDS011;5783;55.174;61.310;2022-12-07T17:34:46;5.83;;;4.67;;
11453;SDS011;5783;55.174;61.310;2022-12-07T17:37:15;5.57;;;4.70;;
11453;SDS011;5783;55.174;61.310;2022-12-07T17:40:04;5.50;;;4.50;;
11453;SDS011;5783;55.174;61.310;2022-12-07T17:42:33;5.93;;;4.53;;
11453;SDS011;5783;55.174;61.310;2022-12-07T17:45:06;5.10;;;4.40;;
11453;SDS011;5783;55.174;61.310;2022-12-07T17:47:37;6.67;;;4.93;;
11453;SDS011;5783;55.174;61.310;2022-12-07T17:50:07;6.63;;;5.00;;
11453;SDS011;5783;55.174;61.310;2022-12-07T17:52:37;6.60;;;4.83;;
11453;SDS011;5783;55.174;61.310;2022-12-07T17:55:27;5.77;;;4.63;;
11453;SDS011;5783;55.174;61.310;2022-12-07T17:57:56;6.53;;;5.17;;
11453;SDS011;5783;55.174;61.310;2022-12-07T18:00:25;5.80;;;4.63;;
11453;SDS011;5783;55.174;61.310;2022-12-07T18:02:54;6.97;;;5.40;;
11453;SDS011;5783;55.174;61.310;2022-12-07T18:05:24;5.80;;;4.87;;
11453;SDS011;5783;55.174;61.310;2022-12-07T18:07:53;6.03;;;4.90;;
11453;SDS011;5783;55.174;61.310;2022-12-07T18:10:22;6.77;;;4.77;;
11453;SDS011;5783;55.174;61.310;2022-12-07T18:12:51;6.77;;;5.20;;
11453;SDS011;5783;55.174;61.310;2022-12-07T18:15:22;6.57;;;5.27;;
11453;SDS011;5783;55.174;61.310;2022-12-07T18:17:51;6.80;;;5.40;;
11453;SDS011;5783;55.174;61.310;2022-12-07T18:20:20;6.13;;;5.10;;
11453;SDS011;5783;55.174;61.310;2022-12-07T18:22:49;6.07;;;5.20;;
11453;SDS011;5783;55.174;61.310;2022-12-07T18:25:18;6.13;;;5.20;;
11453;SDS011;5783;55.174;61.310;2022-12-07T18:27:47;6.53;;;5.17;;
11453;SDS011;5783;55.174;61.310;2022-12-07T18:30:16;6.83;;;5.23;;
11453;SDS011;5783;55.174;61.310;2022-12-07T18:32:46;6.33;;;5.30;;
11453;SDS011;5783;55.174;61.310;2022-12-07T18:35:15;6.43;;;5.37;;
11453;SDS011;5783;55.174;61.310;2022-12-07T18:37:44;7.23;;;5.23;;
11453;SDS011;5783;55.174;61.310;2022-12-07T18:40:13;6.43;;;5.10;;
11453;SDS011;5783;55.174;61.310;2022-12-07T18:42:42;6.90;;;5.13;;
11453;SDS011;5783;55.174;61.310;2022-12-07T18:45:11;6.47;;;5.50;;
11453;SDS011;5783;55.174;61.310;2022-12-07T18:47:40;6.87;;;5.40;;
11453;SDS011;5783;55.174;61.310;2022-12-07T18:50:10;8.17;;;5.77;;
11453;SDS011;5783;55.174;61.310;2022-12-07T18:52:41;6.37;;;5.23;;
11453;SDS011;5783;55.174;61.310;2022-12-07T18:55:10;7.87;;;5.33;;
11453;SDS011;5783;55.174;61.310;2022-12-07T18:57:39;5.97;;;5.10;;
11453;SDS011;5783;55.174;61.310;2022-12-07T19:00:09;6.60;;;4.97;;
11453;SDS011;5783;55.174;61.310;2022-12-07T19:02:38;6.33;;;5.30;;
11453;SDS011;5783;55.174;61.310;2022-12-07T19:05:08;7.27;;;5.40;;
11453;SDS011;5783;55.174;61.310;2022-12-07T19:07:56;7.73;;;5.47;;
11453;SDS011;5783;55.174;61.310;2022-12-07T19:10:25;6.77;;;5.33;;
11453;SDS011;5783;55.174;61.310;2022-12-07T19:12:54;6.03;;;5.10;;
11453;SDS011;5783;55.174;61.310;2022-12-07T19:15:24;6.17;;;4.70;;
11453;SDS011;5783;55.174;61.310;2022-12-07T19:17:53;6.57;;;4.63;;
11453;SDS011;5783;55.174;61.310;2022-12-07T19:20:22;5.77;;;4.40;;
11453;SDS011;5783;55.174;61.310;2022-12-07T19:22:51;7.30;;;4.77;;
11453;SDS011;5783;55.174;61.310;2022-12-07T19:25:20;5.77;;;4.80;;
11453;SDS011;5783;55.174;61.310;2022-12-07T19:27:49;5.23;;;4.27;;
11453;SDS011;5783;55.174;61.310;2022-12-07T19:30:18;4.90;;;4.30;;
11453;SDS011;5783;55.174;61.310;2022-12-07T19:32:48;5.23;;;4.13;;
11453;SDS011;5783;55.174;61.310;2022-12-07T19:35:17;7.23;;;4.50;;
11453;SDS011;5783;55.174;61.310;2022-12-07T19:37:46;7.47;;;4.77;;
11453;SDS011;5783;55.174;61.310;2022-12-07T19:40:15;5.63;;;4.30;;
11453;SDS011;5783;55.174;61.310;2022-12-07T19:42:44;4.67;;;4.17;;
11453;SDS011;5783;55.174;61.310;2022-12-07T19:45:13;5.07;;;3.70;;